KRUG

Rugby Municipal Airport

Rugby, North Dakota, USA
METAR KRUG 150055Z AUTO 00000KT 10SM CLR 20/09 A3000 RMK AO2
Observed Flight Rules
Aug-15 @ 00:55 UTC (10 minutes ago) Visual Flight Rules
Visibility Clouds
10 miles
  • Clear skies
Temperatures Readings
Current 20°C / 68°F
Dewpoint 9°C / 48°F
Humidity 49%
Altimeter 30" Hg
Pressure 1016 hPa
Elevation 472
METAR KRUG 150055Z AUTO 00000KT 10SM CLR 20/09 A3000 RMK AO2
Observed Flight Rules
Aug-15 @ 00:55 UTC
(10 minutes ago)
VFR
Clouds
  • Clear skies
Temperature Dewpoint
20°C / 68°F 9°C / 48°F
Humidity Altimeter Pressure
49% 30" Hg 1016 hPa